Weather at Sibu Hospital Heliport

Public forecast

Using degrees Celsius for public forecast. Weather courtesy of forecast.io.

Closest aviation weather report (METAR) to Sibu Hospital Heliport

Closest report is Sibu Airport, 6.1 nm (11.4 km) ESE.

2024/07/22 10:00 (retrieved 48 minutes ago)

WBGS 221000Z VRB03KT 9999 SCT018 31/27 Q1008

Closest aviation forecast (TAF) to Sibu Hospital Heliport

Closest forecast is Sibu Airport, 6.1 nm (11.4 km) ESE.

2024/07/22 06:00 (retrieved 5 hours ago)

TAF WBGS 220500Z 2206/2306 23005KT 9999 FEW018